createdAt,value
2022-10-19T00:01:39.974Z,100880.31
2022-10-19T00:04:30.800Z,100893.00
2022-10-19T00:07:20.816Z,100888.13
2022-10-19T00:10:13.243Z,100896.03
2022-10-19T00:13:03.349Z,100890.16
2022-10-19T00:15:53.151Z,100892.34
2022-10-19T00:18:47.040Z,100887.03
2022-10-19T00:21:40.552Z,100895.31
2022-10-19T00:24:30.047Z,100897.59
2022-10-19T00:27:19.346Z,100887.69
2022-10-19T00:30:12.565Z,100894.84
2022-10-19T00:33:02.380Z,100902.41
2022-10-19T00:35:53.330Z,100907.16
2022-10-19T00:38:43.750Z,100908.47
2022-10-19T00:41:35.642Z,100911.59
2022-10-19T00:44:31.654Z,100912.38
2022-10-19T00:47:21.895Z,100910.25
2022-10-19T00:50:11.441Z,100915.28
2022-10-19T00:53:01.044Z,100911.19
2022-10-19T00:55:50.342Z,100913.44
2022-10-19T00:58:39.950Z,100925.69
2022-10-19T01:01:33.387Z,100921.13
2022-10-19T01:04:24.818Z,100923.78
2022-10-19T01:07:21.609Z,100919.22
2022-10-19T01:10:14.515Z,100925.28
2022-10-19T01:13:45.307Z,100924.25
2022-10-19T01:16:52.229Z,100921.47
2022-10-19T01:20:17.166Z,100926.47
2022-10-19T01:23:53.093Z,100921.09
2022-10-19T01:27:18.192Z,100923.28
2022-10-19T01:30:55.239Z,100936.16
2022-10-19T01:34:33.237Z,100921.69
2022-10-19T01:37:44.430Z,100922.13
2022-10-19T01:40:44.618Z,100926.34
2022-10-19T01:43:58.191Z,100928.50
2022-10-19T01:47:15.858Z,100916.66
2022-10-19T01:50:28.329Z,100916.66
2022-10-19T01:53:26.741Z,100919.53
2022-10-19T01:56:24.043Z,100911.72
2022-10-19T01:59:14.797Z,100905.75
2022-10-19T02:02:16.900Z,100910.19
2022-10-19T02:05:09.695Z,100904.41
2022-10-19T02:08:12.632Z,100902.66
2022-10-19T02:11:07.469Z,100901.16
2022-10-19T02:14:03.166Z,100890.94
2022-10-19T02:17:08.509Z,100895.31
2022-10-19T02:20:06.601Z,100887.41
2022-10-19T02:22:59.468Z,100885.81
2022-10-19T02:25:50.433Z,100882.44
2022-10-19T02:28:44.571Z,100879.22
2022-10-19T02:31:40.490Z,100863.53
2022-10-19T02:34:31.610Z,100871.47
2022-10-19T02:37:25.486Z,100857.34
2022-10-19T02:40:25.988Z,100850.53
2022-10-19T02:43:25.779Z,100840.84
2022-10-19T02:47:05.890Z,100837.38
2022-10-19T02:50:04.724Z,100833.38
2022-10-19T02:53:02.808Z,100823.63
2022-10-19T02:56:04.502Z,100826.44
2022-10-19T02:59:07.577Z,100811.50
2022-10-19T03:02:08.265Z,100797.34
2022-10-19T03:05:09.994Z,100787.00
2022-10-19T03:08:06.035Z,100791.44
2022-10-19T03:10:58.891Z,100789.78
2022-10-19T03:13:57.268Z,100787.13
2022-10-19T03:16:51.891Z,100781.72
2022-10-19T03:19:43.800Z,100776.38
2022-10-19T03:22:48.339Z,100783.47
2022-10-19T03:32:06.398Z,100758.09
2022-10-19T03:34:57.226Z,100753.75
2022-10-19T03:38:06.326Z,100751.06
2022-10-19T03:41:05.983Z,100740.25
2022-10-19T03:44:08.897Z,100747.75
2022-10-19T03:47:20.605Z,100746.09
2022-10-19T03:50:18.879Z,100743.59
2022-10-19T03:53:11.767Z,100748.22
2022-10-19T03:56:37.051Z,100732.41
2022-10-19T03:59:33.669Z,100718.88
2022-10-19T04:02:24.235Z,100707.81
2022-10-19T04:05:17.871Z,100710.94
2022-10-19T04:08:17.121Z,100727.75
2022-10-19T04:11:13.317Z,100718.38
2022-10-19T04:17:21.742Z,100720.63
2022-10-19T04:20:14.279Z,100708.94
2022-10-19T04:23:12.473Z,100703.28
2022-10-19T04:26:15.084Z,100707.22
2022-10-19T04:29:10.747Z,100713.44
2022-10-19T04:32:04.689Z,100720.06
2022-10-19T04:34:57.272Z,100719.59
2022-10-19T04:38:03.536Z,100735.38
2022-10-19T04:40:57.325Z,100718.91
2022-10-19T04:43:58.161Z,100723.56
2022-10-19T04:47:01.534Z,100718.06
2022-10-19T04:49:57.749Z,100718.75
2022-10-19T04:52:57.679Z,100714.44
2022-10-19T04:55:56.285Z,100713.50
2022-10-19T04:58:50.641Z,100707.16
2022-10-19T05:01:57.826Z,100695.00
2022-10-19T05:04:57.450Z,100691.19
2022-10-19T05:07:56.032Z,100689.28
2022-10-19T05:10:59.942Z,100688.16
2022-10-19T05:13:56.746Z,100678.94
2022-10-19T05:17:21.250Z,100671.44
2022-10-19T05:20:24.803Z,100675.56
2022-10-19T05:23:24.005Z,100671.19
2022-10-19T05:26:47.363Z,100669.50
2022-10-19T05:29:58.449Z,100667.25
2022-10-19T05:33:01.608Z,100657.31
2022-10-19T05:35:55.524Z,100651.91
2022-10-19T05:38:59.226Z,100644.06
2022-10-19T05:41:57.301Z,100641.38
2022-10-19T05:45:06.108Z,100640.13
2022-10-19T05:48:04.031Z,100642.66
2022-10-19T05:51:05.220Z,100637.03
2022-10-19T05:54:06.706Z,100634.81
2022-10-19T05:57:06.926Z,100627.75
2022-10-19T06:00:03.085Z,100620.47
2022-10-19T06:03:07.530Z,100625.88
2022-10-19T06:06:16.707Z,100628.38
2022-10-19T06:09:13.347Z,100610.16
2022-10-19T06:12:15.797Z,100595.63
2022-10-19T06:15:20.126Z,100590.66
2022-10-19T06:18:27.977Z,100599.63
2022-10-19T06:21:46.443Z,100600.34
2022-10-19T06:27:55.245Z,100608.09
2022-10-19T06:30:55.061Z,100611.72
2022-10-19T06:34:04.831Z,100617.75
2022-10-19T06:37:02.538Z,100621.69
2022-10-19T06:43:14.183Z,100613.59
2022-10-19T06:46:13.853Z,100605.50
2022-10-19T06:49:12.150Z,100613.34
2022-10-19T06:52:13.060Z,100599.66
2022-10-19T06:55:11.291Z,100603.19
2022-10-19T06:58:14.625Z,100601.91
2022-10-19T07:01:21.629Z,100597.53
2022-10-19T07:04:25.225Z,100600.25
2022-10-19T07:07:26.181Z,100597.53
2022-10-19T07:10:36.278Z,100604.53
2022-10-19T07:16:44.395Z,100602.56
2022-10-19T07:19:40.709Z,100611.69
2022-10-19T07:25:47.388Z,100625.34
2022-10-19T07:28:52.183Z,100630.38
2022-10-19T07:31:55.045Z,100617.47
2022-10-19T07:34:51.649Z,100635.31
2022-10-19T07:41:04.814Z,100644.84
2022-10-19T07:44:34.955Z,100638.53
2022-10-19T07:50:47.386Z,100634.09
2022-10-19T07:53:46.669Z,100637.00
2022-10-19T07:56:52.292Z,100642.13
2022-10-19T07:59:58.367Z,100656.25
2022-10-19T08:06:23.633Z,100672.38
2022-10-19T08:09:51.063Z,100674.06
2022-10-19T08:13:03.702Z,100675.25
2022-10-19T08:16:03.840Z,100675.25
2022-10-19T08:19:20.226Z,100681.88
2022-10-19T08:22:34.057Z,100666.13
2022-10-19T08:25:50.241Z,100681.56
2022-10-19T08:28:46.637Z,100682.31
2022-10-19T08:31:56.270Z,100682.91
2022-10-19T08:35:45.063Z,100694.78
2022-10-19T08:38:58.696Z,100697.69
2022-10-19T08:42:26.261Z,100709.03
2022-10-19T08:45:50.171Z,100709.88
2022-10-19T08:48:50.557Z,100711.06
2022-10-19T08:52:00.384Z,100715.44
2022-10-19T08:54:55.013Z,100717.13
2022-10-19T08:58:07.191Z,100722.88
2022-10-19T09:01:37.982Z,100718.34
2022-10-19T09:05:22.277Z,100724.63
2022-10-19T09:08:30.306Z,100732.00
2022-10-19T09:15:01.418Z,100737.41
2022-10-19T09:18:08.192Z,100743.13
2022-10-19T09:21:30.882Z,100745.19
2022-10-19T09:25:18.550Z,100749.56
2022-10-19T09:28:41.402Z,100755.97
2022-10-19T09:31:49.156Z,100766.13
2022-10-19T09:35:17.269Z,100764.81
2022-10-19T09:38:15.104Z,100782.00
2022-10-19T09:41:24.542Z,100786.00
2022-10-19T09:44:30.245Z,100794.97
2022-10-19T09:47:42.801Z,100798.19
2022-10-19T09:51:02.295Z,100810.66
2022-10-19T09:54:03.555Z,100818.09
2022-10-19T09:57:40.494Z,100830.94
2022-10-19T10:03:59.558Z,100825.63
2022-10-19T10:07:18.191Z,100833.13
2022-10-19T10:10:50.716Z,100843.97
2022-10-19T10:13:57.858Z,100841.41
2022-10-19T10:17:25.320Z,100841.56
2022-10-19T10:20:49.930Z,100852.69
2022-10-19T10:24:24.228Z,100846.81
2022-10-19T10:27:32.706Z,100855.06
2022-10-19T10:34:22.949Z,100857.97
2022-10-19T10:37:31.607Z,100856.63
2022-10-19T10:44:13.165Z,100858.31
2022-10-19T10:50:58.956Z,100872.09
2022-10-19T10:53:50.998Z,100862.31
2022-10-19T10:56:55.367Z,100868.06
2022-10-19T11:00:27.338Z,100876.13
2022-10-19T11:03:56.201Z,100875.59
2022-10-19T11:06:59.836Z,100881.34
2022-10-19T11:10:10.097Z,100887.59
2022-10-19T11:13:38.173Z,100886.09
2022-10-19T11:16:45.830Z,100898.19
2022-10-19T11:19:52.565Z,100904.78
2022-10-19T11:23:20.000Z,100909.53
2022-10-19T11:26:31.119Z,100915.94
2022-10-19T11:29:58.073Z,100913.91
2022-10-19T11:33:06.740Z,100911.56
2022-10-19T11:36:29.881Z,100921.66
2022-10-19T11:40:05.271Z,100925.75
2022-10-19T11:43:11.050Z,100930.13
2022-10-19T11:46:30.951Z,100959.41
2022-10-19T11:49:48.968Z,100965.63
2022-10-19T11:53:00.629Z,100972.88
2022-10-19T11:56:17.823Z,100992.91
2022-10-19T12:00:13.507Z,100995.78
2022-10-19T12:03:44.273Z,100996.84
2022-10-19T12:07:04.540Z,100999.00
2022-10-19T12:10:43.054Z,101002.59
2022-10-19T12:13:45.476Z,101008.97
2022-10-19T12:16:57.391Z,101017.69
2022-10-19T12:20:02.519Z,101016.72
2022-10-19T12:23:34.352Z,101023.44
2022-10-19T12:26:53.316Z,101028.47
2022-10-19T12:29:54.620Z,101031.00
2022-10-19T12:33:35.652Z,101035.03
2022-10-19T12:37:06.194Z,101037.41
2022-10-19T12:40:48.494Z,101042.63
2022-10-19T12:43:53.641Z,101056.75
2022-10-19T12:46:53.093Z,101050.72
2022-10-19T12:50:02.946Z,101045.69
2022-10-19T12:53:22.585Z,101042.47
2022-10-19T12:56:44.061Z,101045.00
2022-10-19T12:59:52.924Z,101048.00
2022-10-19T13:02:48.295Z,101049.34
2022-10-19T13:06:10.863Z,101052.06
2022-10-19T13:09:13.432Z,101053.75
2022-10-19T13:12:31.790Z,101062.50
2022-10-19T13:16:01.864Z,101057.63
2022-10-19T13:19:27.520Z,101060.47
2022-10-19T13:26:46.381Z,101065.84
2022-10-19T13:29:57.223Z,101066.69
2022-10-19T13:32:53.293Z,101068.22
2022-10-19T13:36:35.751Z,101072.78
2022-10-19T13:39:54.358Z,101074.97
2022-10-19T13:43:09.981Z,101079.03
2022-10-19T13:46:30.808Z,101084.44
2022-10-19T13:50:08.431Z,101078.03
2022-10-19T14:00:30.890Z,101079.34
2022-10-19T14:03:58.543Z,101078.66
2022-10-19T14:08:07.238Z,101083.69
2022-10-19T14:11:26.268Z,101076.47
2022-10-19T14:14:53.145Z,101071.09
2022-10-19T14:18:01.261Z,101075.66
2022-10-19T14:21:11.929Z,101070.25
2022-10-19T14:24:22.898Z,101067.38
2022-10-19T14:27:21.085Z,101073.66
2022-10-19T14:30:29.019Z,101077.69
2022-10-19T14:33:19.451Z,101087.44
2022-10-19T14:36:21.821Z,101084.75
2022-10-19T14:39:43.160Z,101091.16
2022-10-19T14:42:47.418Z,101092.50
2022-10-19T14:45:40.975Z,101087.47
2022-10-19T14:48:33.349Z,101085.28
2022-10-19T14:51:44.503Z,101084.09
2022-10-19T14:54:38.045Z,101075.69
2022-10-19T14:57:35.562Z,101076.03
2022-10-19T15:00:28.762Z,101074.53
2022-10-19T15:03:28.552Z,101074.88
2022-10-19T15:06:27.354Z,101077.75
2022-10-19T15:09:47.733Z,101068.66
2022-10-19T15:12:42.773Z,101075.72
2022-10-19T15:15:35.892Z,101067.31
2022-10-19T15:21:38.692Z,101065.97
2022-10-19T15:24:31.747Z,101069.66
2022-10-19T15:27:24.915Z,101063.28
2022-10-19T15:30:21.037Z,101066.66
2022-10-19T15:33:17.309Z,101061.44
2022-10-19T15:36:22.258Z,101070.03
2022-10-19T15:39:32.854Z,101074.41
2022-10-19T15:42:47.082Z,101078.09
2022-10-19T15:45:40.794Z,101081.47
2022-10-19T15:48:52.291Z,101077.63
2022-10-19T15:51:50.695Z,101086.19
2022-10-19T15:54:45.423Z,101081.66
2022-10-19T15:57:40.753Z,101078.28
2022-10-19T16:00:38.900Z,101079.44
2022-10-19T16:03:32.387Z,101071.03
2022-10-19T16:06:24.628Z,101071.03
2022-10-19T16:09:23.342Z,101064.50
2022-10-19T16:12:16.567Z,101057.78
2022-10-19T16:15:08.651Z,101049.03
2022-10-19T16:18:05.057Z,101046.50
2022-10-19T16:20:55.227Z,101041.09
2022-10-19T16:23:46.132Z,101042.13
2022-10-19T16:26:37.361Z,101049.69
2022-10-19T16:29:30.764Z,101040.09
2022-10-19T16:32:21.309Z,101034.56
2022-10-19T16:35:15.662Z,101037.41
2022-10-19T16:38:05.950Z,101043.13
2022-10-19T16:40:55.977Z,101034.22
2022-10-19T16:43:49.945Z,101037.94
2022-10-19T16:46:40.464Z,101028.00
2022-10-19T16:49:32.364Z,101026.31
2022-10-19T16:52:23.066Z,101021.94
2022-10-19T16:55:13.308Z,101021.44
2022-10-19T16:58:04.028Z,101021.44
2022-10-19T17:00:58.232Z,101013.50
2022-10-19T17:03:52.384Z,101014.50
2022-10-19T17:06:46.436Z,101005.47
2022-10-19T17:09:42.111Z,100999.06
2022-10-19T17:12:33.391Z,101002.78
2022-10-19T17:15:42.133Z,100990.00
2022-10-19T17:18:34.915Z,100989.66
2022-10-19T17:21:28.189Z,100990.50
2022-10-19T17:24:22.062Z,100983.25
2022-10-19T17:27:12.962Z,100990.00
2022-10-19T17:30:06.871Z,100978.41
2022-10-19T17:32:56.989Z,100987.16
2022-10-19T17:35:47.548Z,100975.53
2022-10-19T17:38:39.905Z,100989.31
2022-10-19T17:41:31.513Z,100978.56
2022-10-19T17:44:24.504Z,100976.72
2022-10-19T17:47:14.849Z,100968.66
2022-10-19T17:50:04.998Z,100978.88
2022-10-19T17:52:58.718Z,100963.09
2022-10-19T17:55:49.140Z,100961.41
2022-10-19T17:58:40.129Z,100966.78
2022-10-19T18:01:31.174Z,100961.75
2022-10-19T18:04:25.009Z,100955.53
2022-10-19T18:07:15.182Z,100959.34
2022-10-19T18:10:06.384Z,100949.59
2022-10-19T18:12:56.691Z,100950.63
2022-10-19T18:15:46.679Z,100952.50
2022-10-19T18:18:40.585Z,100935.81
2022-10-19T18:21:39.964Z,100935.81
2022-10-19T18:24:32.136Z,100931.13
2022-10-19T18:27:23.794Z,100925.06
2022-10-19T18:30:14.401Z,100916.00
2022-10-19T18:33:07.797Z,100917.66
2022-10-19T18:36:00.164Z,100916.00
2022-10-19T18:38:55.234Z,100908.94
2022-10-19T18:41:45.382Z,100903.53
2022-10-19T18:44:36.329Z,100901.03
2022-10-19T18:47:26.372Z,100909.31
2022-10-19T18:50:19.297Z,100910.97
2022-10-19T18:53:09.396Z,100900.22
2022-10-19T18:56:02.696Z,100905.94
2022-10-19T18:58:53.753Z,100898.88
2022-10-19T19:01:44.944Z,100902.25
2022-10-19T19:04:35.615Z,100905.94
2022-10-19T19:07:26.268Z,100900.03
2022-10-19T19:10:18.915Z,100899.22
2022-10-19T19:13:09.632Z,100907.28
2022-10-19T19:16:01.029Z,100903.75
2022-10-19T19:18:52.032Z,100904.59
2022-10-19T19:21:45.180Z,100900.56
2022-10-19T19:24:34.977Z,100901.59
2022-10-19T19:27:31.432Z,100891.66
2022-10-19T19:30:24.900Z,100895.00
2022-10-19T19:33:19.322Z,100899.91
2022-10-19T19:36:11.016Z,100899.91
2022-10-19T19:39:01.252Z,100897.88
2022-10-19T19:41:52.962Z,100893.19
2022-10-19T19:44:45.773Z,100887.47
2022-10-19T19:47:36.339Z,100893.66
2022-10-19T19:50:26.779Z,100884.94
2022-10-19T19:53:17.106Z,100883.44
2022-10-19T19:56:12.036Z,100877.41
2022-10-19T19:59:06.786Z,100876.72
2022-10-19T20:01:57.244Z,100879.91
2022-10-19T20:04:48.712Z,100878.06
2022-10-19T20:07:39.755Z,100875.38
2022-10-19T20:10:33.166Z,100878.22
2022-10-19T20:13:23.398Z,100880.75
2022-10-19T20:16:20.931Z,100879.91
2022-10-19T20:19:14.614Z,100876.88
2022-10-19T20:22:07.366Z,100879.56
2022-10-19T20:24:57.338Z,100879.75
2022-10-19T20:27:49.354Z,100889.16
2022-10-19T20:30:39.420Z,100883.78
2022-10-19T20:33:32.486Z,100889.16
2022-10-19T20:36:27.424Z,100889.16
2022-10-19T20:39:17.990Z,100883.78
2022-10-19T20:42:07.901Z,100890.31
2022-10-19T20:44:58.411Z,100899.25
2022-10-19T20:47:50.343Z,100896.72
2022-10-19T20:50:41.932Z,100901.94
2022-10-19T20:53:32.021Z,100911.16
2022-10-19T20:56:24.863Z,100920.25
2022-10-19T20:59:23.734Z,100920.09
2022-10-19T21:02:13.919Z,100922.25
2022-10-19T21:05:04.450Z,100932.00
2022-10-19T21:07:55.179Z,100932.00
2022-10-19T21:10:45.639Z,100931.19
2022-10-19T21:13:36.090Z,100940.25
2022-10-19T21:16:31.601Z,100940.25
2022-10-19T21:19:23.615Z,100950.81
2022-10-19T21:22:17.054Z,100956.38
2022-10-19T21:25:07.491Z,100968.47
2022-10-19T21:27:58.636Z,100966.78
2022-10-19T21:30:48.578Z,100976.88
2022-10-19T21:33:57.015Z,100968.47
2022-10-19T21:36:49.118Z,100989.31
2022-10-19T21:39:50.133Z,100986.94
2022-10-19T21:42:45.728Z,100990.66
2022-10-19T21:45:44.670Z,100991.31
2022-10-19T21:48:42.070Z,101000.38
2022-10-19T21:51:43.961Z,100997.00
2022-10-19T21:54:47.381Z,101004.38
2022-10-19T21:57:37.206Z,101014.47
2022-10-19T22:00:28.216Z,101015.97
2022-10-19T22:03:21.124Z,101021.34
2022-10-19T22:06:12.150Z,101022.19
2022-10-19T22:09:02.621Z,101023.19
2022-10-19T22:11:53.258Z,101033.78
2022-10-19T22:14:46.222Z,101040.00
2022-10-19T22:17:37.669Z,101042.00
2022-10-19T22:20:27.825Z,101055.59
2022-10-19T22:23:17.708Z,101062.84
2022-10-19T22:26:18.258Z,101063.50
2022-10-19T22:29:11.603Z,101067.22
2022-10-19T22:32:01.515Z,101072.59
2022-10-19T22:34:52.106Z,101074.25
2022-10-19T22:37:42.026Z,101082.31
2022-10-19T22:40:33.215Z,101083.16
2022-10-19T22:43:22.730Z,101076.78
2022-10-19T22:46:12.609Z,101076.78
2022-10-19T22:49:02.394Z,101085.03
2022-10-19T22:51:52.075Z,101091.06
2022-10-19T22:54:44.085Z,101086.69
2022-10-19T22:57:34.333Z,101100.53
2022-10-19T23:00:24.194Z,101101.34
2022-10-19T23:03:14.205Z,101105.56
2022-10-19T23:06:04.534Z,101110.63
2022-10-19T23:08:55.190Z,101108.63
2022-10-19T23:11:46.114Z,101108.63
2022-10-19T23:14:36.589Z,101115.16
2022-10-19T23:17:33.026Z,101114.31
2022-10-19T23:20:23.025Z,101110.94
2022-10-19T23:23:16.098Z,101120.06
2022-10-19T23:26:15.162Z,101115.34
2022-10-19T23:29:07.218Z,101118.72
2022-10-19T23:31:57.613Z,101123.78
2022-10-19T23:34:52.014Z,101123.78
2022-10-19T23:37:42.355Z,101126.09
2022-10-19T23:40:34.555Z,101125.59
2022-10-19T23:43:24.357Z,101129.16
2022-10-19T23:46:13.582Z,101135.19
2022-10-19T23:49:02.261Z,101140.06
2022-10-19T23:51:52.594Z,101140.94
2022-10-19T23:54:41.817Z,101132.19
2022-10-19T23:57:30.890Z,101133.22
